sensor_id;sensor_type;location;lat;lon;timestamp;temperature;humidity
19781;DHT22;10050;55.492;13.506;2023-04-24T00:00:06;6.70;99.90
19781;DHT22;10050;55.492;13.506;2023-04-24T00:02:34;6.70;99.90
19781;DHT22;10050;55.492;13.506;2023-04-24T00:05:03;6.70;99.90
19781;DHT22;10050;55.492;13.506;2023-04-24T00:07:29;6.60;99.90
19781;DHT22;10050;55.492;13.506;2023-04-24T00:09:55;6.60;99.90
19781;DHT22;10050;55.492;13.506;2023-04-24T00:12:21;6.70;99.90
19781;DHT22;10050;55.492;13.506;2023-04-24T00:14:47;6.60;99.90
19781;DHT22;10050;55.492;13.506;2023-04-24T00:17:13;6.60;99.90
19781;DHT22;10050;55.492;13.506;2023-04-24T00:19:38;6.60;99.90
19781;DHT22;10050;55.492;13.506;2023-04-24T00:22:04;6.60;99.90
19781;DHT22;10050;55.492;13.506;2023-04-24T00:24:30;6.50;99.90
19781;DHT22;10050;55.492;13.506;2023-04-24T00:26:56;6.40;99.90
19781;DHT22;10050;55.492;13.506;2023-04-24T00:29:22;6.40;99.90
19781;DHT22;10050;55.492;13.506;2023-04-24T00:31:48;6.40;99.90
19781;DHT22;10050;55.492;13.506;2023-04-24T00:34:13;6.40;99.90
19781;DHT22;10050;55.492;13.506;2023-04-24T00:36:39;6.40;99.90
19781;DHT22;10050;55.492;13.506;2023-04-24T00:39:05;6.30;99.90
19781;DHT22;10050;55.492;13.506;2023-04-24T00:41:34;6.40;99.90
19781;DHT22;10050;55.492;13.506;2023-04-24T00:44:00;6.40;99.90
19781;DHT22;10050;55.492;13.506;2023-04-24T00:46:26;6.30;99.90
19781;DHT22;10050;55.492;13.506;2023-04-24T00:48:52;6.30;99.90
19781;DHT22;10050;55.492;13.506;2023-04-24T00:51:18;6.30;99.90
19781;DHT22;10050;55.492;13.506;2023-04-24T00:53:44;6.30;99.90
19781;DHT22;10050;55.492;13.506;2023-04-24T00:56:10;6.20;99.90
19781;DHT22;10050;55.492;13.506;2023-04-24T00:58:36;6.20;99.90
19781;DHT22;10050;55.492;13.506;2023-04-24T01:01:02;6.20;99.90
19781;DHT22;10050;55.492;13.506;2023-04-24T01:03:33;6.20;99.90
19781;DHT22;10050;55.492;13.506;2023-04-24T01:05:59;6.10;99.90
19781;DHT22;10050;55.492;13.506;2023-04-24T01:08:26;6.10;99.90
19781;DHT22;10050;55.492;13.506;2023-04-24T01:10:53;6.10;99.90
19781;DHT22;10050;55.492;13.506;2023-04-24T01:13:19;6.10;99.90
19781;DHT22;10050;55.492;13.506;2023-04-24T01:15:46;6.10;99.90
19781;DHT22;10050;55.492;13.506;2023-04-24T01:18:13;6.10;99.90
19781;DHT22;10050;55.492;13.506;2023-04-24T01:20:42;6.10;99.90
19781;DHT22;10050;55.492;13.506;2023-04-24T01:23:09;6.10;99.90
19781;DHT22;10050;55.492;13.506;2023-04-24T01:25:36;6.10;99.90
19781;DHT22;10050;55.492;13.506;2023-04-24T01:28:03;6.10;99.90
19781;DHT22;10050;55.492;13.506;2023-04-24T01:30:30;6.10;99.90
19781;DHT22;10050;55.492;13.506;2023-04-24T01:32:56;6.10;99.90
19781;DHT22;10050;55.492;13.506;2023-04-24T01:35:22;6.10;99.90
19781;DHT22;10050;55.492;13.506;2023-04-24T01:37:47;6.10;99.90
19781;DHT22;10050;55.492;13.506;2023-04-24T01:40:13;6.10;99.90
19781;DHT22;10050;55.492;13.506;2023-04-24T01:42:41;6.10;99.90
19781;DHT22;10050;55.492;13.506;2023-04-24T01:45:09;6.10;99.90
19781;DHT22;10050;55.492;13.506;2023-04-24T01:47:35;6.10;99.90
19781;DHT22;10050;55.492;13.506;2023-04-24T01:50:01;6.10;99.90
19781;DHT22;10050;55.492;13.506;2023-04-24T01:52:27;6.10;99.90
19781;DHT22;10050;55.492;13.506;2023-04-24T01:54:56;6.10;99.90
19781;DHT22;10050;55.492;13.506;2023-04-24T01:57:24;6.10;99.90
19781;DHT22;10050;55.492;13.506;2023-04-24T01:59:51;6.10;99.90
19781;DHT22;10050;55.492;13.506;2023-04-24T02:02:17;6.10;99.90
19781;DHT22;10050;55.492;13.506;2023-04-24T02:04:42;6.10;99.90
19781;DHT22;10050;55.492;13.506;2023-04-24T02:07:08;6.10;99.90
19781;DHT22;10050;55.492;13.506;2023-04-24T02:09:34;6.00;99.90
19781;DHT22;10050;55.492;13.506;2023-04-24T02:11:59;6.00;99.90
19781;DHT22;10050;55.492;13.506;2023-04-24T02:14:26;6.00;99.90
19781;DHT22;10050;55.492;13.506;2023-04-24T02:16:51;6.00;99.90
19781;DHT22;10050;55.492;13.506;2023-04-24T02:19:17;6.00;99.90
19781;DHT22;10050;55.492;13.506;2023-04-24T02:21:42;6.00;99.90
19781;DHT22;10050;55.492;13.506;2023-04-24T02:24:08;5.90;99.90
19781;DHT22;10050;55.492;13.506;2023-04-24T02:26:36;5.90;99.90
19781;DHT22;10050;55.492;13.506;2023-04-24T02:29:02;5.90;99.90
19781;DHT22;10050;55.492;13.506;2023-04-24T02:31:28;5.90;99.90
19781;DHT22;10050;55.492;13.506;2023-04-24T02:33:53;5.90;99.90
19781;DHT22;10050;55.492;13.506;2023-04-24T02:36:19;5.90;99.90
19781;DHT22;10050;55.492;13.506;2023-04-24T02:38:45;5.90;99.90
19781;DHT22;10050;55.492;13.506;2023-04-24T02:41:10;5.90;99.90
19781;DHT22;10050;55.492;13.506;2023-04-24T02:43:36;5.90;99.90
19781;DHT22;10050;55.492;13.506;2023-04-24T02:46:02;5.90;99.90
19781;DHT22;10050;55.492;13.506;2023-04-24T02:48:28;6.10;99.90
19781;DHT22;10050;55.492;13.506;2023-04-24T02:50:53;6.10;99.90
19781;DHT22;10050;55.492;13.506;2023-04-24T02:53:19;6.10;99.90
19781;DHT22;10050;55.492;13.506;2023-04-24T02:55:45;6.20;99.90
19781;DHT22;10050;55.492;13.506;2023-04-24T02:58:11;6.30;99.90
19781;DHT22;10050;55.492;13.506;2023-04-24T03:00:38;6.40;99.90
19781;DHT22;10050;55.492;13.506;2023-04-24T03:03:04;6.40;99.90
19781;DHT22;10050;55.492;13.506;2023-04-24T03:05:30;6.50;99.90
19781;DHT22;10050;55.492;13.506;2023-04-24T03:07:56;6.50;99.90
19781;DHT22;10050;55.492;13.506;2023-04-24T03:10:22;6.60;99.90
19781;DHT22;10050;55.492;13.506;2023-04-24T03:12:48;6.70;99.90
19781;DHT22;10050;55.492;13.506;2023-04-24T03:15:13;6.70;99.90
19781;DHT22;10050;55.492;13.506;2023-04-24T03:17:39;6.70;99.90
19781;DHT22;10050;55.492;13.506;2023-04-24T03:20:05;6.80;99.90
19781;DHT22;10050;55.492;13.506;2023-04-24T03:22:31;6.80;99.90
19781;DHT22;10050;55.492;13.506;2023-04-24T03:24:58;6.80;99.90
19781;DHT22;10050;55.492;13.506;2023-04-24T03:27:24;6.80;99.90
19781;DHT22;10050;55.492;13.506;2023-04-24T03:29:49;6.90;99.90
19781;DHT22;10050;55.492;13.506;2023-04-24T03:32:19;6.80;99.90
19781;DHT22;10050;55.492;13.506;2023-04-24T03:34:45;6.90;99.90
19781;DHT22;10050;55.492;13.506;2023-04-24T03:37:10;6.90;99.90
19781;DHT22;10050;55.492;13.506;2023-04-24T03:39:36;6.90;99.90
19781;DHT22;10050;55.492;13.506;2023-04-24T03:42:01;6.90;99.90
19781;DHT22;10050;55.492;13.506;2023-04-24T03:44:27;7.00;99.90
19781;DHT22;10050;55.492;13.506;2023-04-24T03:46:53;7.00;99.90
19781;DHT22;10050;55.492;13.506;2023-04-24T03:49:19;7.00;99.90
19781;DHT22;10050;55.492;13.506;2023-04-24T03:51:44;7.10;99.90
19781;DHT22;10050;55.492;13.506;2023-04-24T03:54:10;7.10;99.90
19781;DHT22;10050;55.492;13.506;2023-04-24T03:56:36;7.20;99.90
19781;DHT22;10050;55.492;13.506;2023-04-24T03:59:01;7.30;99.90
19781;DHT22;10050;55.492;13.506;2023-04-24T04:01:27;7.30;99.90
19781;DHT22;10050;55.492;13.506;2023-04-24T04:03:53;7.40;99.90
19781;DHT22;10050;55.492;13.506;2023-04-24T04:06:19;7.50;99.90
19781;DHT22;10050;55.492;13.506;2023-04-24T04:08:46;7.50;99.90
19781;DHT22;10050;55.492;13.506;2023-04-24T04:11:12;7.60;99.90
19781;DHT22;10050;55.492;13.506;2023-04-24T04:13:38;7.60;99.90
19781;DHT22;10050;55.492;13.506;2023-04-24T04:16:03;7.70;99.90
19781;DHT22;10050;55.492;13.506;2023-04-24T04:18:29;7.70;99.90
19781;DHT22;10050;55.492;13.506;2023-04-24T04:20:55;7.80;99.90
19781;DHT22;10050;55.492;13.506;2023-04-24T04:23:22;7.80;99.90
19781;DHT22;10050;55.492;13.506;2023-04-24T04:25:48;7.90;99.90
19781;DHT22;10050;55.492;13.506;2023-04-24T04:28:13;7.90;99.90
19781;DHT22;10050;55.492;13.506;2023-04-24T04:30:39;7.90;99.90
19781;DHT22;10050;55.492;13.506;2023-04-24T04:33:05;7.90;99.90
19781;DHT22;10050;55.492;13.506;2023-04-24T04:35:31;8.00;99.90
19781;DHT22;10050;55.492;13.506;2023-04-24T04:37:56;7.90;99.90
19781;DHT22;10050;55.492;13.506;2023-04-24T04:40:24;8.00;99.90
19781;DHT22;10050;55.492;13.506;2023-04-24T04:42:50;8.00;99.90
19781;DHT22;10050;55.492;13.506;2023-04-24T04:45:18;8.10;99.90
19781;DHT22;10050;55.492;13.506;2023-04-24T04:47:44;8.10;99.90
19781;DHT22;10050;55.492;13.506;2023-04-24T04:50:10;8.20;99.90
19781;DHT22;10050;55.492;13.506;2023-04-24T04:52:36;8.20;99.90
19781;DHT22;10050;55.492;13.506;2023-04-24T04:55:01;8.30;99.90
19781;DHT22;10050;55.492;13.506;2023-04-24T04:57:27;8.30;99.90
19781;DHT22;10050;55.492;13.506;2023-04-24T04:59:53;8.30;99.90
19781;DHT22;10050;55.492;13.506;2023-04-24T05:02:19;8.40;99.90
19781;DHT22;10050;55.492;13.506;2023-04-24T05:04:44;8.40;99.90
19781;DHT22;10050;55.492;13.506;2023-04-24T05:07:11;8.50;99.90
19781;DHT22;10050;55.492;13.506;2023-04-24T05:09:36;8.50;99.90
19781;DHT22;10050;55.492;13.506;2023-04-24T05:12:02;8.50;99.90
19781;DHT22;10050;55.492;13.506;2023-04-24T05:14:28;8.60;99.90
19781;DHT22;10050;55.492;13.506;2023-04-24T05:16:54;8.70;99.90
19781;DHT22;10050;55.492;13.506;2023-04-24T05:19:19;8.80;99.90
19781;DHT22;10050;55.492;13.506;2023-04-24T05:21:45;8.90;99.90
19781;DHT22;10050;55.492;13.506;2023-04-24T05:24:11;9.00;99.90
19781;DHT22;10050;55.492;13.506;2023-04-24T05:26:36;9.10;99.90
19781;DHT22;10050;55.492;13.506;2023-04-24T05:29:03;9.20;99.90
19781;DHT22;10050;55.492;13.506;2023-04-24T05:31:29;9.40;99.90
19781;DHT22;10050;55.492;13.506;2023-04-24T05:33:55;9.50;99.90
19781;DHT22;10050;55.492;13.506;2023-04-24T05:36:20;9.70;99.90
19781;DHT22;10050;55.492;13.506;2023-04-24T05:38:46;9.80;99.90
19781;DHT22;10050;55.492;13.506;2023-04-24T05:41:12;9.80;99.90
19781;DHT22;10050;55.492;13.506;2023-04-24T05:43:37;9.90;99.90
19781;DHT22;10050;55.492;13.506;2023-04-24T05:46:06;9.90;99.90
19781;DHT22;10050;55.492;13.506;2023-04-24T05:48:32;9.90;99.90
19781;DHT22;10050;55.492;13.506;2023-04-24T05:50:57;9.90;99.90
19781;DHT22;10050;55.492;13.506;2023-04-24T05:53:23;9.90;99.90
19781;DHT22;10050;55.492;13.506;2023-04-24T05:55:49;10.00;99.90
19781;DHT22;10050;55.492;13.506;2023-04-24T05:58:15;9.90;99.90
19781;DHT22;10050;55.492;13.506;2023-04-24T06:00:40;10.00;99.90
19781;DHT22;10050;55.492;13.506;2023-04-24T06:03:08;10.00;99.90
19781;DHT22;10050;55.492;13.506;2023-04-24T06:05:34;10.00;99.90
19781;DHT22;10050;55.492;13.506;2023-04-24T06:08:00;10.00;99.90
19781;DHT22;10050;55.492;13.506;2023-04-24T06:10:26;10.10;99.90
19781;DHT22;10050;55.492;13.506;2023-04-24T06:12:51;10.00;99.90
19781;DHT22;10050;55.492;13.506;2023-04-24T06:15:17;9.90;99.90
19781;DHT22;10050;55.492;13.506;2023-04-24T06:17:43;10.00;99.90
19781;DHT22;10050;55.492;13.506;2023-04-24T06:20:09;10.00;99.90
19781;DHT22;10050;55.492;13.506;2023-04-24T06:22:36;10.10;99.90
19781;DHT22;10050;55.492;13.506;2023-04-24T06:25:01;10.10;99.90
19781;DHT22;10050;55.492;13.506;2023-04-24T06:27:27;10.10;99.90
19781;DHT22;10050;55.492;13.506;2023-04-24T06:29:53;10.10;99.90
19781;DHT22;10050;55.492;13.506;2023-04-24T06:32:23;10.10;99.90
19781;DHT22;10050;55.492;13.506;2023-04-24T06:34:50;10.00;99.90
19781;DHT22;10050;55.492;13.506;2023-04-24T06:37:16;10.00;99.90
19781;DHT22;10050;55.492;13.506;2023-04-24T06:39:42;10.10;99.90
19781;DHT22;10050;55.492;13.506;2023-04-24T06:42:08;10.10;99.90
19781;DHT22;10050;55.492;13.506;2023-04-24T06:44:35;10.10;99.90
19781;DHT22;10050;55.492;13.506;2023-04-24T06:47:06;10.10;99.90
19781;DHT22;10050;55.492;13.506;2023-04-24T06:49:32;10.20;99.90
19781;DHT22;10050;55.492;13.506;2023-04-24T06:51:58;10.40;99.90
19781;DHT22;10050;55.492;13.506;2023-04-24T06:54:23;10.50;99.90
19781;DHT22;10050;55.492;13.506;2023-04-24T06:56:49;10.80;99.90
19781;DHT22;10050;55.492;13.506;2023-04-24T06:59:16;11.10;99.90
19781;DHT22;10050;55.492;13.506;2023-04-24T07:01:42;11.40;99.90
19781;DHT22;10050;55.492;13.506;2023-04-24T07:04:07;11.50;99.90
19781;DHT22;10050;55.492;13.506;2023-04-24T07:06:33;11.40;99.90
19781;DHT22;10050;55.492;13.506;2023-04-24T07:09:00;11.20;99.90
19781;DHT22;10050;55.492;13.506;2023-04-24T07:11:26;11.00;99.90
19781;DHT22;10050;55.492;13.506;2023-04-24T07:13:55;11.00;99.90
19781;DHT22;10050;55.492;13.506;2023-04-24T07:16:21;10.90;99.90
19781;DHT22;10050;55.492;13.506;2023-04-24T07:18:46;10.70;99.90
19781;DHT22;10050;55.492;13.506;2023-04-24T07:21:12;10.80;99.90
19781;DHT22;10050;55.492;13.506;2023-04-24T07:23:37;10.80;99.90
19781;DHT22;10050;55.492;13.506;2023-04-24T07:26:03;10.80;99.90
19781;DHT22;10050;55.492;13.506;2023-04-24T07:28:29;10.80;99.90
19781;DHT22;10050;55.492;13.506;2023-04-24T07:30:58;11.00;99.90
19781;DHT22;10050;55.492;13.506;2023-04-24T07:33:25;11.10;99.90
19781;DHT22;10050;55.492;13.506;2023-04-24T07:35:51;11.10;99.90
19781;DHT22;10050;55.492;13.506;2023-04-24T07:38:17;11.00;99.90
19781;DHT22;10050;55.492;13.506;2023-04-24T07:40:46;10.90;99.90
19781;DHT22;10050;55.492;13.506;2023-04-24T07:43:12;10.90;99.90
19781;DHT22;10050;55.492;13.506;2023-04-24T07:45:38;10.90;99.90
19781;DHT22;10050;55.492;13.506;2023-04-24T07:48:05;10.70;99.90
19781;DHT22;10050;55.492;13.506;2023-04-24T07:50:30;10.60;99.90
19781;DHT22;10050;55.492;13.506;2023-04-24T07:52:56;10.50;99.90
19781;DHT22;10050;55.492;13.506;2023-04-24T07:55:22;10.50;99.90
19781;DHT22;10050;55.492;13.506;2023-04-24T07:57:48;10.20;99.90
19781;DHT22;10050;55.492;13.506;2023-04-24T08:00:14;10.00;99.90
19781;DHT22;10050;55.492;13.506;2023-04-24T08:02:39;9.90;99.90
19781;DHT22;10050;55.492;13.506;2023-04-24T08:05:06;9.80;99.90
19781;DHT22;10050;55.492;13.506;2023-04-24T08:07:31;9.60;99.90
19781;DHT22;10050;55.492;13.506;2023-04-24T08:09:57;9.40;99.90
19781;DHT22;10050;55.492;13.506;2023-04-24T08:12:24;9.30;99.90
19781;DHT22;10050;55.492;13.506;2023-04-24T08:14:50;9.20;99.90
19781;DHT22;10050;55.492;13.506;2023-04-24T08:17:17;9.10;99.90
19781;DHT22;10050;55.492;13.506;2023-04-24T08:19:42;9.00;99.90
19781;DHT22;10050;55.492;13.506;2023-04-24T08:22:13;8.90;99.90
19781;DHT22;10050;55.492;13.506;2023-04-24T08:24:38;8.90;99.90
19781;DHT22;10050;55.492;13.506;2023-04-24T08:27:04;8.90;99.90
19781;DHT22;10050;55.492;13.506;2023-04-24T08:29:30;8.70;99.90
19781;DHT22;10050;55.492;13.506;2023-04-24T08:31:56;8.60;99.90
19781;DHT22;10050;55.492;13.506;2023-04-24T08:34:21;8.70;99.90
19781;DHT22;10050;55.492;13.506;2023-04-24T08:36:47;8.70;99.90
19781;DHT22;10050;55.492;13.506;2023-04-24T08:39:13;8.70;99.90
19781;DHT22;10050;55.492;13.506;2023-04-24T08:41:41;8.70;99.90
19781;DHT22;10050;55.492;13.506;2023-04-24T08:44:09;8.80;99.90
19781;DHT22;10050;55.492;13.506;2023-04-24T08:46:38;8.80;99.90
19781;DHT22;10050;55.492;13.506;2023-04-24T08:49:05;8.90;99.90
19781;DHT22;10050;55.492;13.506;2023-04-24T08:51:31;8.90;99.90
19781;DHT22;10050;55.492;13.506;2023-04-24T08:53:57;8.90;99.90
19781;DHT22;10050;55.492;13.506;2023-04-24T08:56:23;9.00;99.90
19781;DHT22;10050;55.492;13.506;2023-04-24T08:58:53;9.00;99.90
19781;DHT22;10050;55.492;13.506;2023-04-24T09:01:20;9.10;99.90
19781;DHT22;10050;55.492;13.506;2023-04-24T09:03:48;9.20;99.90
19781;DHT22;10050;55.492;13.506;2023-04-24T09:06:16;9.30;99.90
19781;DHT22;10050;55.492;13.506;2023-04-24T09:08:44;9.30;99.90
19781;DHT22;10050;55.492;13.506;2023-04-24T09:11:11;9.30;99.90
19781;DHT22;10050;55.492;13.506;2023-04-24T09:13:37;9.30;99.90
19781;DHT22;10050;55.492;13.506;2023-04-24T09:16:03;9.30;99.90
19781;DHT22;10050;55.492;13.506;2023-04-24T09:18:29;9.20;99.90
19781;DHT22;10050;55.492;13.506;2023-04-24T09:21:07;9.30;99.90
19781;DHT22;10050;55.492;13.506;2023-04-24T09:23:33;9.40;99.90
19781;DHT22;10050;55.492;13.506;2023-04-24T09:26:01;9.50;99.90
19781;DHT22;10050;55.492;13.506;2023-04-24T09:28:31;9.50;99.90
19781;DHT22;10050;55.492;13.506;2023-04-24T09:31:03;9.50;99.90
19781;DHT22;10050;55.492;13.506;2023-04-24T09:33:29;9.50;99.90
19781;DHT22;10050;55.492;13.506;2023-04-24T09:35:55;9.60;99.90
19781;DHT22;10050;55.492;13.506;2023-04-24T09:38:31;9.70;99.90
19781;DHT22;10050;55.492;13.506;2023-04-24T09:41:06;9.60;99.90
19781;DHT22;10050;55.492;13.506;2023-04-24T09:43:32;9.50;99.90
19781;DHT22;10050;55.492;13.506;2023-04-24T09:46:00;9.50;99.90
19781;DHT22;10050;55.492;13.506;2023-04-24T09:48:36;9.50;99.90
19781;DHT22;10050;55.492;13.506;2023-04-24T09:51:04;9.50;99.90
19781;DHT22;10050;55.492;13.506;2023-04-24T09:53:32;9.50;99.90
19781;DHT22;10050;55.492;13.506;2023-04-24T09:56:08;9.60;99.90
19781;DHT22;10050;55.492;13.506;2023-04-24T09:58:35;9.60;99.90
19781;DHT22;10050;55.492;13.506;2023-04-24T10:01:01;9.60;99.90
19781;DHT22;10050;55.492;13.506;2023-04-24T10:03:29;9.70;99.90
19781;DHT22;10050;55.492;13.506;2023-04-24T10:05:59;9.70;99.90
19781;DHT22;10050;55.492;13.506;2023-04-24T10:08:33;9.80;99.90
19781;DHT22;10050;55.492;13.506;2023-04-24T10:10:59;9.80;99.90
19781;DHT22;10050;55.492;13.506;2023-04-24T10:13:25;10.00;99.90
19781;DHT22;10050;55.492;13.506;2023-04-24T10:15:51;10.00;99.90
19781;DHT22;10050;55.492;13.506;2023-04-24T10:18:17;10.00;99.90
19781;DHT22;10050;55.492;13.506;2023-04-24T10:20:43;10.10;99.90
19781;DHT22;10050;55.492;13.506;2023-04-24T10:23:09;10.20;99.90
19781;DHT22;10050;55.492;13.506;2023-04-24T10:25:36;10.30;99.90
19781;DHT22;10050;55.492;13.506;2023-04-24T10:28:05;10.40;99.90
19781;DHT22;10050;55.492;13.506;2023-04-24T10:30:32;10.50;99.90
19781;DHT22;10050;55.492;13.506;2023-04-24T10:33:06;10.40;99.90
19781;DHT22;10050;55.492;13.506;2023-04-24T10:35:38;10.50;99.90
19781;DHT22;10050;55.492;13.506;2023-04-24T10:38:11;10.50;99.90
19781;DHT22;10050;55.492;13.506;2023-04-24T10:40:37;10.40;99.90
19781;DHT22;10050;55.492;13.506;2023-04-24T10:43:07;10.50;99.90
19781;DHT22;10050;55.492;13.506;2023-04-24T10:45:35;10.60;99.90
19781;DHT22;10050;55.492;13.506;2023-04-24T10:48:05;10.70;99.90
19781;DHT22;10050;55.492;13.506;2023-04-24T10:50:52;10.50;99.90
19781;DHT22;10050;55.492;13.506;2023-04-24T10:53:23;10.40;99.90
19781;DHT22;10050;55.492;13.506;2023-04-24T10:55:51;10.30;99.90
19781;DHT22;10050;55.492;13.506;2023-04-24T10:58:22;10.30;99.90
19781;DHT22;10050;55.492;13.506;2023-04-24T11:00:59;10.30;99.90
19781;DHT22;10050;55.492;13.506;2023-04-24T11:03:27;10.30;99.90
19781;DHT22;10050;55.492;13.506;2023-04-24T11:05:56;10.30;99.90
19781;DHT22;10050;55.492;13.506;2023-04-24T11:08:24;10.40;99.90
19781;DHT22;10050;55.492;13.506;2023-04-24T11:11:03;10.40;99.90
19781;DHT22;10050;55.492;13.506;2023-04-24T11:21:44;10.90;99.90
19781;DHT22;10050;55.492;13.506;2023-04-24T11:24:38;11.00;99.90
19781;DHT22;10050;55.492;13.506;2023-04-24T11:34:48;11.20;99.90
19781;DHT22;10050;55.492;13.506;2023-04-24T11:37:14;11.30;99.90
19781;DHT22;10050;55.492;13.506;2023-04-24T11:39:40;11.50;99.90
19781;DHT22;10050;55.492;13.506;2023-04-24T11:42:07;11.80;99.90
19781;DHT22;10050;55.492;13.506;2023-04-24T11:44:36;12.00;99.90
19781;DHT22;10050;55.492;13.506;2023-04-24T11:47:05;12.30;99.90
19781;DHT22;10050;55.492;13.506;2023-04-24T11:49:32;12.50;99.90
19781;DHT22;10050;55.492;13.506;2023-04-24T11:51:59;12.20;99.90
19781;DHT22;10050;55.492;13.506;2023-04-24T11:54:26;11.80;99.90
19781;DHT22;10050;55.492;13.506;2023-04-24T11:56:51;11.70;99.90
19781;DHT22;10050;55.492;13.506;2023-04-24T11:59:17;11.60;99.90
19781;DHT22;10050;55.492;13.506;2023-04-24T12:01:47;11.40;99.90
19781;DHT22;10050;55.492;13.506;2023-04-24T12:04:13;11.40;99.90
19781;DHT22;10050;55.492;13.506;2023-04-24T12:06:39;11.60;99.90
19781;DHT22;10050;55.492;13.506;2023-04-24T12:09:05;12.00;99.90
19781;DHT22;10050;55.492;13.506;2023-04-24T12:11:31;12.20;99.90
19781;DHT22;10050;55.492;13.506;2023-04-24T12:13:57;12.10;99.90
19781;DHT22;10050;55.492;13.506;2023-04-24T12:16:25;12.10;99.90
19781;DHT22;10050;55.492;13.506;2023-04-24T12:18:51;11.90;99.90
19781;DHT22;10050;55.492;13.506;2023-04-24T12:21:23;11.70;99.90
19781;DHT22;10050;55.492;13.506;2023-04-24T12:23:54;11.60;99.90
19781;DHT22;10050;55.492;13.506;2023-04-24T12:26:20;11.70;99.90
19781;DHT22;10050;55.492;13.506;2023-04-24T12:28:48;12.10;99.90
19781;DHT22;10050;55.492;13.506;2023-04-24T12:31:15;12.40;99.90
19781;DHT22;10050;55.492;13.506;2023-04-24T12:33:42;12.30;99.90
19781;DHT22;10050;55.492;13.506;2023-04-24T12:36:10;12.30;99.90
19781;DHT22;10050;55.492;13.506;2023-04-24T12:38:37;12.30;99.90
19781;DHT22;10050;55.492;13.506;2023-04-24T12:41:08;12.40;99.90
19781;DHT22;10050;55.492;13.506;2023-04-24T12:43:35;12.40;99.90
19781;DHT22;10050;55.492;13.506;2023-04-24T12:46:00;12.50;99.90
19781;DHT22;10050;55.492;13.506;2023-04-24T12:48:27;12.60;99.90
19781;DHT22;10050;55.492;13.506;2023-04-24T12:50:53;12.70;99.90
19781;DHT22;10050;55.492;13.506;2023-04-24T12:53:19;12.60;99.90
19781;DHT22;10050;55.492;13.506;2023-04-24T12:55:44;12.70;99.90
19781;DHT22;10050;55.492;13.506;2023-04-24T12:58:12;12.70;99.90
19781;DHT22;10050;55.492;13.506;2023-04-24T13:00:38;12.70;99.90
19781;DHT22;10050;55.492;13.506;2023-04-24T13:03:04;12.80;99.90
19781;DHT22;10050;55.492;13.506;2023-04-24T13:05:30;12.60;99.90
19781;DHT22;10050;55.492;13.506;2023-04-24T13:07:57;12.70;99.90
19781;DHT22;10050;55.492;13.506;2023-04-24T13:10:22;12.70;99.90
19781;DHT22;10050;55.492;13.506;2023-04-24T13:12:48;12.70;99.90
19781;DHT22;10050;55.492;13.506;2023-04-24T13:15:14;12.50;99.90
19781;DHT22;10050;55.492;13.506;2023-04-24T13:17:39;12.60;99.90
19781;DHT22;10050;55.492;13.506;2023-04-24T13:20:05;12.70;99.90
19781;DHT22;10050;55.492;13.506;2023-04-24T13:22:31;12.90;99.90
19781;DHT22;10050;55.492;13.506;2023-04-24T13:24:57;13.00;99.90
19781;DHT22;10050;55.492;13.506;2023-04-24T13:27:23;13.10;99.90
19781;DHT22;10050;55.492;13.506;2023-04-24T13:29:48;13.20;99.90
19781;DHT22;10050;55.492;13.506;2023-04-24T13:32:14;13.30;99.90
19781;DHT22;10050;55.492;13.506;2023-04-24T13:34:40;13.10;99.90
19781;DHT22;10050;55.492;13.506;2023-04-24T13:37:06;13.10;99.90
19781;DHT22;10050;55.492;13.506;2023-04-24T13:39:33;13.30;99.90
19781;DHT22;10050;55.492;13.506;2023-04-24T13:41:58;13.40;99.90
19781;DHT22;10050;55.492;13.506;2023-04-24T13:44:24;13.50;99.90
19781;DHT22;10050;55.492;13.506;2023-04-24T13:46:52;13.70;99.90
19781;DHT22;10050;55.492;13.506;2023-04-24T13:49:20;13.80;99.90
19781;DHT22;10050;55.492;13.506;2023-04-24T13:51:47;14.00;99.90
19781;DHT22;10050;55.492;13.506;2023-04-24T13:54:12;14.30;99.90
19781;DHT22;10050;55.492;13.506;2023-04-24T13:56:39;14.60;99.90
19781;DHT22;10050;55.492;13.506;2023-04-24T13:59:05;14.70;99.90
19781;DHT22;10050;55.492;13.506;2023-04-24T14:01:31;14.70;99.90
19781;DHT22;10050;55.492;13.506;2023-04-24T14:03:57;14.80;99.90
19781;DHT22;10050;55.492;13.506;2023-04-24T14:06:23;14.80;99.90
19781;DHT22;10050;55.492;13.506;2023-04-24T14:08:49;14.80;99.90
19781;DHT22;10050;55.492;13.506;2023-04-24T14:11:16;14.90;99.90
19781;DHT22;10050;55.492;13.506;2023-04-24T14:13:42;15.20;99.90
19781;DHT22;10050;55.492;13.506;2023-04-24T14:16:09;15.30;99.90
19781;DHT22;10050;55.492;13.506;2023-04-24T14:18:35;15.40;99.90
19781;DHT22;10050;55.492;13.506;2023-04-24T14:21:02;15.40;99.90
19781;DHT22;10050;55.492;13.506;2023-04-24T14:23:28;15.60;99.90
19781;DHT22;10050;55.492;13.506;2023-04-24T14:25:53;15.70;99.90
19781;DHT22;10050;55.492;13.506;2023-04-24T14:28:20;15.80;99.90
19781;DHT22;10050;55.492;13.506;2023-04-24T14:30:47;15.80;99.90
19781;DHT22;10050;55.492;13.506;2023-04-24T14:33:12;16.00;99.90
19781;DHT22;10050;55.492;13.506;2023-04-24T14:35:39;16.00;99.90
19781;DHT22;10050;55.492;13.506;2023-04-24T14:38:05;16.10;99.90
19781;DHT22;10050;55.492;13.506;2023-04-24T14:40:31;15.80;99.90
19781;DHT22;10050;55.492;13.506;2023-04-24T14:42:58;15.80;99.90
19781;DHT22;10050;55.492;13.506;2023-04-24T14:45:24;16.00;99.90
19781;DHT22;10050;55.492;13.506;2023-04-24T14:47:50;16.20;99.90
19781;DHT22;10050;55.492;13.506;2023-04-24T14:50:16;16.60;99.90
19781;DHT22;10050;55.492;13.506;2023-04-24T14:52:42;16.90;99.90
19781;DHT22;10050;55.492;13.506;2023-04-24T14:55:08;16.90;99.90
19781;DHT22;10050;55.492;13.506;2023-04-24T14:57:34;16.90;99.90
19781;DHT22;10050;55.492;13.506;2023-04-24T15:00:02;16.70;99.90
19781;DHT22;10050;55.492;13.506;2023-04-24T15:02:28;16.60;99.90
19781;DHT22;10050;55.492;13.506;2023-04-24T15:04:54;16.20;99.90
19781;DHT22;10050;55.492;13.506;2023-04-24T15:07:20;15.90;99.90
19781;DHT22;10050;55.492;13.506;2023-04-24T15:09:45;15.80;99.90
19781;DHT22;10050;55.492;13.506;2023-04-24T15:12:12;15.80;99.90
19781;DHT22;10050;55.492;13.506;2023-04-24T15:14:38;15.80;99.90
19781;DHT22;10050;55.492;13.506;2023-04-24T15:17:04;15.80;99.90
19781;DHT22;10050;55.492;13.506;2023-04-24T15:19:31;15.60;99.90
19781;DHT22;10050;55.492;13.506;2023-04-24T15:21:57;15.60;99.90
19781;DHT22;10050;55.492;13.506;2023-04-24T15:24:23;15.80;99.90
19781;DHT22;10050;55.492;13.506;2023-04-24T15:26:48;15.70;99.90
19781;DHT22;10050;55.492;13.506;2023-04-24T15:29:14;15.40;99.90
19781;DHT22;10050;55.492;13.506;2023-04-24T15:31:40;15.40;99.90
19781;DHT22;10050;55.492;13.506;2023-04-24T15:34:06;15.20;99.90
19781;DHT22;10050;55.492;13.506;2023-04-24T15:36:32;15.00;99.90